createdAt,value
2022-10-31T00:01:29.953Z,100992.97
2022-10-31T00:05:31.459Z,100999.06
2022-10-31T00:09:33.034Z,101001.69
2022-10-31T00:13:34.635Z,100992.19
2022-10-31T00:17:39.434Z,100997.19
2022-10-31T00:21:41.100Z,100992.72
2022-10-31T00:25:42.815Z,100990.94
2022-10-31T00:29:45.588Z,100989.97
2022-10-31T00:33:47.475Z,101001.94
2022-10-31T00:37:53.449Z,101003.56
2022-10-31T00:41:55.088Z,101009.41
2022-10-31T00:45:56.599Z,101010.09
2022-10-31T00:49:59.799Z,101012.59
2022-10-31T00:54:01.298Z,101010.72
2022-10-31T00:58:03.425Z,101014.09
2022-10-31T01:02:05.499Z,101020.88
2022-10-31T01:06:10.147Z,101018.19
2022-10-31T01:10:12.539Z,101019.03
2022-10-31T01:14:14.408Z,101023.19
2022-10-31T01:18:15.896Z,101015.34
2022-10-31T01:22:17.474Z,101017.03
2022-10-31T01:26:21.818Z,101016.00
2022-10-31T01:30:23.327Z,101021.09
2022-10-31T01:34:24.820Z,101017.56
2022-10-31T01:38:26.464Z,101018.34
2022-10-31T01:42:28.019Z,101019.97
2022-10-31T01:46:40.960Z,101017.31
2022-10-31T01:50:45.376Z,101017.22
2022-10-31T01:54:51.782Z,101007.69
2022-10-31T01:58:55.520Z,101011.03
2022-10-31T02:02:57.526Z,101007.44
2022-10-31T02:07:11.447Z,101000.47
2022-10-31T02:11:13.445Z,101008.97
2022-10-31T02:15:15.105Z,101001.13
2022-10-31T02:19:59.820Z,101008.78
2022-10-31T02:24:27.326Z,101000.97
2022-10-31T02:28:34.948Z,100991.47
2022-10-31T02:32:44.474Z,100992.31
2022-10-31T02:37:15.375Z,100994.13
2022-10-31T02:41:36.169Z,100987.25
2022-10-31T02:45:57.296Z,100986.25
2022-10-31T02:50:07.498Z,100986.16
2022-10-31T02:54:20.757Z,100983.53
2022-10-31T02:58:27.795Z,100992.03
2022-10-31T03:02:38.511Z,100988.59
2022-10-31T03:06:51.875Z,100997.00
2022-10-31T03:11:00.103Z,101004.09
2022-10-31T03:15:26.296Z,100997.41
2022-10-31T03:19:32.622Z,101003.19
2022-10-31T03:23:36.591Z,100999.84
2022-10-31T03:27:42.540Z,100999.50
2022-10-31T03:31:52.616Z,100996.91
2022-10-31T03:35:58.323Z,101009.19
2022-10-31T03:40:02.771Z,101008.34
2022-10-31T03:44:10.859Z,100999.88
2022-10-31T03:48:16.756Z,101004.69
2022-10-31T03:52:30.031Z,100998.31
2022-10-31T03:56:40.733Z,101007.38
2022-10-31T04:00:46.848Z,100995.56
2022-10-31T04:04:50.053Z,101007.72
2022-10-31T04:09:02.643Z,101002.72
2022-10-31T04:13:11.145Z,101009.28
2022-10-31T04:17:30.489Z,101012.41
2022-10-31T04:21:32.247Z,101005.41
2022-10-31T04:25:33.806Z,101004.53
2022-10-31T04:29:35.714Z,101001.84
2022-10-31T04:33:37.345Z,100991.31
2022-10-31T04:37:39.955Z,101003.78
2022-10-31T04:41:41.544Z,101004.41
2022-10-31T04:45:49.034Z,101000.03
2022-10-31T04:49:50.587Z,101006.31
2022-10-31T04:53:52.124Z,101006.78
2022-10-31T05:02:24.432Z,101007.06
2022-10-31T05:06:30.551Z,101011.59
2022-10-31T05:10:32.632Z,101012.47
2022-10-31T05:14:35.639Z,101003.59
2022-10-31T05:18:57.211Z,100999.41
2022-10-31T05:23:17.514Z,100989.09
2022-10-31T05:27:19.167Z,100988.16
2022-10-31T05:31:20.706Z,100993.22
2022-10-31T05:35:27.736Z,100999.22
2022-10-31T05:39:54.264Z,100991.28
2022-10-31T05:43:56.747Z,100986.03
2022-10-31T05:48:04.199Z,100986.00
2022-10-31T05:52:38.336Z,100981.66
2022-10-31T05:56:49.949Z,100987.75
2022-10-31T06:00:54.045Z,100984.34
2022-10-31T06:04:55.815Z,100982.41
2022-10-31T06:08:58.224Z,100990.22
2022-10-31T06:13:01.074Z,100993.00
2022-10-31T06:17:28.878Z,100989.66
2022-10-31T06:21:50.657Z,100986.38
2022-10-31T06:25:52.759Z,100982.31
2022-10-31T06:29:54.428Z,100981.66
2022-10-31T06:34:03.599Z,100982.69
2022-10-31T06:38:05.453Z,100990.50
2022-10-31T06:42:17.315Z,100976.16
2022-10-31T06:46:19.181Z,100979.72
2022-10-31T06:50:36.433Z,100985.81
2022-10-31T06:54:38.032Z,100984.88
2022-10-31T06:58:39.864Z,100987.69
2022-10-31T07:02:43.557Z,100991.38
2022-10-31T07:06:48.260Z,100999.28
2022-10-31T07:10:56.336Z,100992.66
2022-10-31T07:14:59.407Z,100995.44
2022-10-31T07:19:00.894Z,100997.34
2022-10-31T07:23:05.184Z,101001.16
2022-10-31T07:27:08.313Z,100995.47
2022-10-31T07:31:10.359Z,100976.88
2022-10-31T07:35:16.581Z,100982.78
2022-10-31T07:39:22.186Z,100995.78
2022-10-31T07:43:23.819Z,100990.06
2022-10-31T07:47:45.443Z,101001.59
2022-10-31T07:52:09.994Z,100994.03
2022-10-31T07:56:14.215Z,100993.38
2022-10-31T08:00:16.304Z,100991.28
2022-10-31T08:04:17.805Z,100984.81
2022-10-31T08:08:38.683Z,100981.78
2022-10-31T08:12:42.310Z,100985.72
2022-10-31T08:16:43.899Z,100975.94
2022-10-31T08:20:47.080Z,100975.59
2022-10-31T08:24:48.627Z,100976.91
2022-10-31T08:28:50.756Z,100979.81
2022-10-31T08:33:20.072Z,100972.19
2022-10-31T08:37:55.524Z,100976.44
2022-10-31T08:41:59.929Z,100966.41
2022-10-31T08:46:01.466Z,100973.19
2022-10-31T08:50:04.311Z,100966.72
2022-10-31T08:54:05.973Z,100964.63
2022-10-31T08:58:43.035Z,100954.53
2022-10-31T09:02:45.797Z,100952.31
2022-10-31T09:07:19.618Z,100952.66
2022-10-31T09:11:10.569Z,100942.69
2022-10-31T09:15:51.296Z,100955.28
2022-10-31T09:19:58.242Z,100946.78
2022-10-31T09:24:09.508Z,100949.41
2022-10-31T09:28:16.237Z,100950.56
2022-10-31T09:32:19.097Z,100947.47
2022-10-31T09:36:21.729Z,100938.25
2022-10-31T09:40:31.579Z,100939.69
2022-10-31T09:44:45.835Z,100939.84
2022-10-31T09:49:34.348Z,100933.09
2022-10-31T09:53:48.357Z,100936.69
2022-10-31T09:57:54.690Z,100928.56
2022-10-31T10:02:01.824Z,100915.16
2022-10-31T10:06:18.289Z,100912.09
2022-10-31T10:11:06.043Z,100910.63
2022-10-31T10:16:01.279Z,100908.25
2022-10-31T10:20:11.503Z,100907.56
2022-10-31T10:25:00.986Z,100905.06
2022-10-31T10:29:11.232Z,100899.88
2022-10-31T10:33:22.984Z,100900.75
2022-10-31T10:37:36.184Z,100883.44
2022-10-31T10:41:42.963Z,100886.94
2022-10-31T10:46:07.789Z,100877.41
2022-10-31T10:50:23.449Z,100881.78
2022-10-31T10:54:38.376Z,100869.75
2022-10-31T10:58:43.429Z,100863.06
2022-10-31T11:02:48.832Z,100856.25
2022-10-31T11:07:09.091Z,100848.56
2022-10-31T11:11:28.922Z,100842.59
2022-10-31T11:15:34.905Z,100832.28
2022-10-31T11:19:36.957Z,100825.50
2022-10-31T11:23:38.452Z,100818.72
2022-10-31T11:27:40.090Z,100821.34
2022-10-31T11:31:42.796Z,100816.16
2022-10-31T11:35:44.693Z,100805.94
2022-10-31T11:39:54.315Z,100789.72
2022-10-31T11:44:05.557Z,100783.53
2022-10-31T11:48:17.960Z,100774.94
2022-10-31T11:52:29.167Z,100772.41
2022-10-31T11:56:43.487Z,100763.94
2022-10-31T12:00:51.200Z,100757.09
2022-10-31T12:05:05.142Z,100758.91
2022-10-31T12:09:26.644Z,100757.16
2022-10-31T12:13:35.610Z,100759.72
2022-10-31T12:17:37.099Z,100749.34
2022-10-31T12:22:02.586Z,100760.66
2022-10-31T12:26:19.347Z,100752.94
2022-10-31T12:30:24.816Z,100754.66
2022-10-31T12:34:32.157Z,100754.66
2022-10-31T12:38:42.181Z,100749.47
2022-10-31T12:42:56.471Z,100737.41
2022-10-31T12:47:08.421Z,100711.50
2022-10-31T12:51:18.814Z,100702.94
2022-10-31T12:55:47.377Z,100686.56
2022-10-31T12:59:56.922Z,100679.66
2022-10-31T13:04:14.313Z,100666.72
2022-10-31T13:08:43.792Z,100639.19
2022-10-31T13:12:49.564Z,100643.56
2022-10-31T13:16:52.003Z,100645.28
2022-10-31T13:20:55.737Z,100653.91
2022-10-31T13:25:09.442Z,100639.19
2022-10-31T13:29:21.985Z,100635.75
2022-10-31T13:33:49.321Z,100641.13
2022-10-31T13:38:05.254Z,100625.78
2022-10-31T13:42:35.805Z,100641.53
2022-10-31T13:46:40.491Z,100646.78
2022-10-31T13:50:44.043Z,100646.00
2022-10-31T13:54:48.414Z,100642.53
2022-10-31T13:59:03.069Z,100642.47
2022-10-31T14:03:04.742Z,100641.53
2022-10-31T14:07:16.072Z,100641.47
2022-10-31T14:11:25.550Z,100631.06
2022-10-31T14:15:28.950Z,100637.94
2022-10-31T14:19:30.666Z,100624.91
2022-10-31T14:23:35.233Z,100614.38
2022-10-31T14:27:46.547Z,100609.91
2022-10-31T14:32:16.826Z,100602.84
2022-10-31T14:36:38.663Z,100606.94
2022-10-31T14:41:01.746Z,100611.97
2022-10-31T14:45:32.444Z,100598.91
2022-10-31T14:50:01.774Z,100625.47
2022-10-31T14:54:06.147Z,100619.31
2022-10-31T14:58:08.981Z,100627.06
2022-10-31T15:02:20.624Z,100602.94
2022-10-31T15:06:24.414Z,100600.34
2022-10-31T15:10:32.896Z,100590.88
2022-10-31T15:14:34.527Z,100564.94
2022-10-31T15:18:36.069Z,100577.03
2022-10-31T15:22:37.852Z,100573.56
2022-10-31T15:26:43.752Z,100568.34
2022-10-31T15:31:02.459Z,100541.50
2022-10-31T15:35:10.609Z,100538.81
2022-10-31T15:39:12.702Z,100529.28
2022-10-31T15:43:17.185Z,100511.94
2022-10-31T15:47:21.666Z,100515.34
2022-10-31T15:51:33.801Z,100515.31
2022-10-31T15:55:46.328Z,100504.94
2022-10-31T15:59:49.934Z,100479.88
2022-10-31T16:04:24.573Z,100440.81
2022-10-31T16:08:32.111Z,100450.13
2022-10-31T16:12:37.204Z,100472.41
2022-10-31T16:16:49.174Z,100466.28
2022-10-31T16:20:53.750Z,100466.16
2022-10-31T16:25:16.778Z,100480.75
2022-10-31T16:29:39.983Z,100499.69
2022-10-31T16:33:41.587Z,100534.94
2022-10-31T16:37:43.897Z,100530.59
2022-10-31T16:41:48.194Z,100498.75
2022-10-31T16:45:51.716Z,100508.22
2022-10-31T16:49:53.268Z,100503.91
2022-10-31T16:53:55.791Z,100496.94
2022-10-31T16:57:59.178Z,100487.44
2022-10-31T17:02:01.887Z,100471.94
2022-10-31T17:06:03.727Z,100439.94
2022-10-31T17:10:05.837Z,100450.97
2022-10-31T17:14:07.442Z,100479.25
2022-10-31T17:18:12.924Z,100451.63
2022-10-31T17:22:15.307Z,100476.59
2022-10-31T17:26:17.126Z,100466.22
2022-10-31T17:30:20.208Z,100440.25
2022-10-31T17:34:21.784Z,100463.44
2022-10-31T17:38:23.638Z,100469.28
2022-10-31T17:42:25.378Z,100468.94
2022-10-31T17:46:28.342Z,100459.22
2022-10-31T17:50:29.961Z,100477.03
2022-10-31T17:54:31.445Z,100510.44
2022-10-31T17:58:34.956Z,100513.56
2022-10-31T18:02:37.225Z,100499.75
2022-10-31T18:06:38.914Z,100506.63
2022-10-31T18:10:41.672Z,100492.13
2022-10-31T18:14:48.173Z,100509.38
2022-10-31T18:18:55.699Z,100517.09
2022-10-31T18:22:57.249Z,100522.22
2022-10-31T18:26:58.797Z,100529.22
2022-10-31T18:31:00.769Z,100518.16
2022-10-31T18:35:02.321Z,100515.63
2022-10-31T18:39:03.899Z,100508.00
2022-10-31T18:43:05.915Z,100498.59
2022-10-31T18:47:07.569Z,100494.28
2022-10-31T18:51:11.060Z,100484.84
2022-10-31T18:55:12.664Z,100498.56
2022-10-31T18:59:14.281Z,100496.00
2022-10-31T19:03:16.220Z,100502.00
2022-10-31T19:07:17.780Z,100508.00
2022-10-31T19:11:19.324Z,100507.03
2022-10-31T19:15:20.978Z,100507.91
2022-10-31T19:19:22.667Z,100476.03
2022-10-31T19:23:24.280Z,100477.66
2022-10-31T19:27:28.017Z,100495.66
2022-10-31T19:31:29.676Z,100484.47
2022-10-31T19:35:31.188Z,100477.50
2022-10-31T19:39:32.853Z,100490.28
2022-10-31T19:43:34.985Z,100502.97
2022-10-31T19:47:36.501Z,100517.38
2022-10-31T19:51:38.141Z,100520.59
2022-10-31T19:55:40.514Z,100511.94
2022-10-31T19:59:42.030Z,100514.56
2022-10-31T20:03:45.244Z,100516.31
2022-10-31T20:07:46.867Z,100514.53
2022-10-31T20:11:48.492Z,100516.06
2022-10-31T20:15:50.825Z,100528.88
2022-10-31T20:19:52.405Z,100534.91
2022-10-31T20:23:58.910Z,100522.03
2022-10-31T20:28:00.417Z,100520.25
2022-10-31T20:32:02.020Z,100517.66
2022-10-31T20:36:07.659Z,100514.13
2022-10-31T20:40:10.036Z,100507.13
2022-10-31T20:44:11.569Z,100510.47
2022-10-31T20:48:13.532Z,100524.13
2022-10-31T20:52:15.043Z,100503.44
2022-10-31T20:56:19.902Z,100510.47
2022-10-31T21:00:21.506Z,100500.25
2022-10-31T21:04:23.191Z,100503.75
2022-10-31T21:08:26.173Z,100497.75
2022-10-31T21:12:27.851Z,100482.22
2022-10-31T21:16:32.257Z,100495.78
2022-10-31T21:20:33.824Z,100487.81
2022-10-31T21:24:35.368Z,100497.94
2022-10-31T21:28:37.374Z,100503.91
2022-10-31T21:32:38.879Z,100507.38
2022-10-31T21:36:40.401Z,100498.06
2022-10-31T21:44:49.655Z,100504.88
2022-10-31T21:48:51.689Z,100506.75
2022-10-31T21:52:53.198Z,100500.00
2022-10-31T21:56:56.668Z,100486.28
2022-10-31T22:01:04.106Z,100489.59
2022-10-31T22:05:05.982Z,100504.06
2022-10-31T22:09:10.060Z,100501.44
2022-10-31T22:13:11.613Z,100498.00
2022-10-31T22:17:13.107Z,100490.44
2022-10-31T22:21:16.980Z,100486.03
2022-10-31T22:25:18.640Z,100492.78
2022-10-31T22:29:21.400Z,100486.69
2022-10-31T22:33:22.965Z,100481.50
2022-10-31T22:37:24.544Z,100474.56
2022-10-31T22:41:28.638Z,100480.50
2022-10-31T22:45:30.136Z,100483.09
2022-10-31T22:49:31.940Z,100482.28
2022-10-31T22:53:34.788Z,100485.72
2022-10-31T22:57:36.416Z,100473.78
2022-10-31T23:01:38.322Z,100475.47
2022-10-31T23:05:40.025Z,100490.00
2022-10-31T23:09:41.528Z,100482.28
2022-10-31T23:14:03.826Z,100471.06
2022-10-31T23:18:14.399Z,100487.28
2022-10-31T23:22:20.437Z,100480.59
2022-10-31T23:26:40.420Z,100477.16
2022-10-31T23:30:42.011Z,100489.09
2022-10-31T23:34:45.586Z,100492.56
2022-10-31T23:38:50.867Z,100475.41
2022-10-31T23:42:52.341Z,100481.50
2022-10-31T23:46:54.107Z,100478.97
2022-10-31T23:50:55.733Z,100467.03
2022-10-31T23:54:59.668Z,100472.22
2022-10-31T23:59:01.584Z,100460.22
